Valley Peak, Santa Cruz Island Reserve, California Weather observations

Data are for 10 minute period ending at time listed.
 Day   Time   Solar   Ave.   Ave.  Ave.  Vector  Max.   Baro.   Total    
  of    of     Rad.   Air    Rel.  Wind   Wind   Wind  Press.  Precip.   
Year   Day            Temp.  Hum.  Speed  Dir.   Gust                    
2015   (PST)  Kw/m2    F      %     mph   deg.    mph    mb.     in.     
-------------------------------------------------------------------------
 144    0:00   0.00   48.8    88   11.5    13    14.6   966.0    0.00 
 144    0:10   0.00   50.2    84   10.6     6    14.0   966.0    0.00 
 144    0:20   0.00   50.6    82    9.6    12    12.7   966.0    0.00 
 144    0:30   0.00   49.8    84   11.1    11    14.7   966.0    0.00 
 144    0:40   0.00   49.8    84    9.8     9    12.9   966.0    0.00 
 144    0:50   0.00   50.7    82    7.8     7    12.0   965.9    0.00 
 144    1:00   0.00   51.3    81   10.7     4    13.2   965.8    0.00 
 144    1:10   0.00   50.5    82   12.0    18    15.3   965.9    0.00 
 144    1:20   0.00   49.2    87   12.2    17    14.9   965.9    0.00 
 144    1:30   0.00   48.8    88   12.6    19    16.3   965.8    0.00 
 144    1:40   0.00   49.4    87   12.7     9    16.1   965.8    0.00 
 144    1:50   0.00   50.6    84   11.8    10    15.1   965.9    0.00 
 144    2:00   0.00   50.6    83   11.1    10    15.1   966.0    0.00 
 144    2:10   0.00   50.2    85   10.8     3    15.5   965.9    0.00 
 144    2:20   0.00   51.3    82    8.7     2    12.4   965.9    0.00 
 144    2:30   0.00   51.4    82    9.7    14    13.1   965.8    0.00 
 144    2:40   0.00   50.6    84    5.3    20     8.0   965.9    0.00 
 144    2:50   0.00   50.3    84    4.9   347     7.2   965.9    0.00 
 144    3:00   0.00   49.9    85    3.7   295     5.8   965.8    0.00 
 144    3:10   0.00   50.8    83    7.6   358    10.4   965.8    0.00 
 144    3:20   0.00   51.0    82    8.4    16    11.2   965.8    0.00 
 144    3:30   0.00   49.0    88    7.1    18     8.6   965.6    0.00 
 144    3:40   0.00   49.4    88    7.0     3     8.6   965.7    0.00 
 144    3:50   0.00   50.2    85    6.3     4     7.7   965.6    0.00 
 144    4:00   0.00   49.4    87    4.5    34     6.4   965.6    0.00 
 144    4:10   0.00   49.1    88    4.2    22     5.8   965.6    0.00 
 144    4:20   0.00   50.2    86    4.2    30     6.1   965.5    0.00 
 144    4:30   0.00   49.4    87    6.6    28     8.8   965.6    0.00 
 144    4:40   0.00   48.5    90    7.0    34     9.6   965.6    0.00 
 144    4:50   0.00   48.3    92    3.1     5     5.5   965.6    0.00 
 144    5:00   0.00   48.8    90    2.9    22     3.9   965.7    0.00 
 144    5:10   0.01   48.4    91    3.8    27     6.3   965.9    0.00 
 144    5:20   0.03   48.3    92    4.8    41     8.0   965.9    0.00 
 144    5:30   0.06   48.5    93    2.2    25     4.1   966.0    0.00 
 144    5:40   0.09   48.8    91    3.3   225     5.0   966.2    0.00 
 144    5:50   0.11   48.6    92    3.6   258     4.8   966.4    0.00 
 144    6:00   0.14   49.0    92    4.4   245     7.4   966.6    0.00 
 144    6:10   0.18   48.9    93    6.8   248     8.5   966.6    0.00 
 144    6:20   0.21   49.2    93    6.2   258     8.0   966.7    0.00 
 144    6:30   0.25   50.2    90    4.0   261     7.5   966.7    0.00 
 144    6:40   0.28   51.6    88    1.8   336     4.5   966.7    0.00 
 144    6:50   0.32   53.7    83    5.1    46     8.3   966.8    0.00 
 144    7:00   0.36   54.7    79    5.9    39     8.4   966.8    0.00 
 144    7:10   0.39   55.1    79    3.7    44     7.2   966.9    0.00 
 144    7:20   0.42   56.2    77    3.6    54     8.0   966.9    0.00 
 144    7:30   0.46   57.1    74    2.8    51     6.4   967.0    0.00 
 144    7:40   0.49   57.8    73    3.4    57     7.5   967.0    0.00 
 144    7:50   0.52   59.2    70    3.6    69     6.1   967.0    0.00 
 144    8:00   0.56   60.7    67    3.5    78     6.3   966.9    0.00 
 144    8:10   0.59   61.5    64    3.6   116     7.2   966.9    0.00 
 144    8:20   0.63   62.3    62    4.2   127     7.7   966.9    0.00 
 144    8:30   0.66   62.2    62    4.5   129     8.2   966.8    0.00 
 144    8:40   0.69   62.8    61    4.6   138     9.1   966.8    0.00 
 144    8:50   0.72   62.9    61    4.6   138    10.7   966.8    0.00 
 144    9:00   0.74   63.4    60    5.0   135     9.6   966.8    0.00 
 144    9:10   0.77   63.5    60    5.3   141     9.9   966.8    0.00 
 144    9:20   0.80   63.3    60    5.1   136    10.6   966.8    0.00 
 144    9:30   0.82   63.8    58    5.1   136    10.2   966.8    0.00 
 144    9:40   0.84   64.2    58    3.8   130     8.8   966.9    0.00 
 144    9:50   0.86   65.0    56    4.8   130     8.8   966.9    0.00 
 144   10:00   0.88   65.7    55    4.4   131     8.3   967.0    0.00 
 144   10:10   0.90   65.0    56    4.3   129     8.1   966.9    0.00 
 144   10:20   0.91   65.7    56    3.4   110     8.3   966.9    0.00 
 144   10:30   0.93   67.2    53    4.4   115     9.1   966.9    0.00 
 144   10:40   0.95   66.3    55    4.2   115     8.8   966.9    0.00 
 144   10:50   0.98   67.3    54    3.6    89     8.0   966.9    0.00 
 144   11:00   0.96   67.0    55    4.5    79     7.8   966.9    0.00 
 144   11:10   0.93   66.8    56    4.2    62     9.4   966.7    0.00 
 144   11:20   0.98   67.4    54    3.3    58     7.1   966.7    0.00 
 144   11:30   0.93   66.8    55    2.9    56     6.9   966.7    0.00 
 144   11:40   0.96   66.8    54    2.7    67     6.9   966.7    0.00 
 144   11:50   0.99   66.8    53    4.2    72     8.3   966.7    0.00 
 144   12:00   0.98   67.5    51    3.0    59     8.6   966.6    0.00 
 144   12:10   0.97   65.4    54    7.0    44    14.6   966.4    0.00 
 144   12:20   0.97   65.5    54    8.6    46    19.2   966.3    0.00 
 144   12:30   0.97   65.0    55   10.8    45    20.8   966.2    0.00 
 144   12:40   0.96   65.6    54   11.3    46    17.9   966.2    0.00 
 144   12:50   0.95   64.9    55   11.1    41    16.1   966.2    0.00 
 144   13:00   0.94   65.7    54   11.6    39    15.6   966.1    0.00 
 144   13:10   0.93   62.7    59   10.9    38    15.2   966.0    0.00 
 144   13:20   0.92   64.0    58    7.8    37    12.1   966.0    0.00 
 144   13:30   0.91   65.4    56    6.2    50    11.2   965.9    0.00 
 144   13:40   0.89   66.9    54    6.7    48    11.3   965.7    0.00 
 144   13:50   0.87   68.4    52    4.2    51     9.6   965.6    0.00 
 144   14:00   0.85   66.5    55    3.7    64     7.8   965.5    0.00 
 144   14:10   0.83   66.5    55    2.8    46     7.5   965.3    0.00 
 144   14:20   0.81   68.9    52    4.4    81     7.3   965.2    0.00 
 144   14:30   0.79   70.7    49    3.5    67     7.1   965.1    0.00 
 144   14:40   0.76   70.5    49    4.0    65     7.1   965.1    0.00 
 144   14:50   0.74   69.9    50    2.3    68     5.4   965.0    0.00 
 144   15:00   0.71   69.9    50    2.8    66     5.8   964.9    0.00 
 144   15:10   0.68   69.3    52    3.9    81     6.9   964.7    0.00 
 144   15:20   0.65   69.0    52    3.7    74     6.0   964.6    0.00 
 144   15:30   0.62   69.9    51    3.0    61     6.0   964.5    0.00 
 144   15:40   0.59   71.0    49    2.6    67     6.2   964.5    0.00 
 144   15:50   0.56   70.6    50    2.5    88     5.7   964.5    0.00 
 144   16:00   0.52   71.2    49    2.8   109     5.8   964.5    0.00 
 144   16:10   0.49   71.3    49    2.8   123     6.4   964.5    0.00 
 144   16:20   0.46   69.6    51    3.4   140     7.5   964.4    0.00 
 144   16:30   0.42   68.8    52    3.2   132     7.2   964.3    0.00 
 144   16:40   0.39   69.2    52    2.7   128     5.8   964.3    0.00 
 144   16:50   0.35   69.9    50    3.9   147     8.0   964.3    0.00 
 144   17:00   0.31   67.7    54    3.7   148     6.3   964.3    0.00 
 144   17:10   0.28   66.3    56    3.7   165     5.8   964.2    0.00 
 144   17:20   0.24   65.7    57    2.3   144     5.8   964.2    0.00 
 144   17:30   0.20   66.5    55    3.1   147     4.9   964.2    0.00 
 144   17:40   0.18   65.3    57    3.2   183     8.2   964.2    0.00 
 144   17:50   0.14   62.3    64    7.1   246    13.2   964.3    0.00 
 144   18:00   0.12   59.7    70    6.1   246     8.3   964.3    0.00 
 144   18:10   0.09   57.9    74    5.5   263     8.4   964.4    0.00 
 144   18:20   0.07   57.0    76    3.5   263     5.8   964.5    0.00 
 144   18:30   0.04   56.0    79    3.8   261     6.5   964.6    0.00 
 144   18:40   0.02   54.8    81    2.9   280     5.6   964.7    0.00 
 144   18:50   0.01   54.3    83    2.0   299     3.1   964.7    0.00 
 144   19:00   0.00   53.1    85    3.6   245     6.3   964.8    0.00 
 144   19:10   0.00   51.3    91    4.9   261     5.9   964.8    0.00 
 144   19:20   0.00   51.1    92    4.0   259     5.9   964.7    0.00 
 144   19:30   0.00   50.9    92    3.6   259     5.6   964.8    0.00 
 144   19:40   0.00   50.2    94    3.7   277     5.6   964.8    0.00 
 144   19:50   0.00   50.6    94    2.1   329     2.9   964.8    0.00 
 144   20:00   0.00   51.7    92    2.4   330     4.3   964.8    0.00 
 144   20:10   0.00   52.1    90    4.3   356     5.4   964.8    0.00 
 144   20:20   0.00   52.4    90    3.3     1     5.8   964.8    0.00 
 144   20:30   0.00   52.9    89    5.6     6     6.4   964.8    0.00 
 144   20:40   0.00   53.4    86    5.9    16     6.4   964.9    0.00 
 144   20:50   0.00   52.9    88    6.1    17     7.1   965.0    0.00 
 144   21:00   0.00   52.4    90    5.0    30     6.1   965.2    0.00 
 144   21:10   0.00   52.1    90    3.9    24     4.7   965.2    0.00 
 144   21:20   0.00   51.9    91    3.1   350     4.0   965.2    0.00 
 144   21:30   0.00   51.1    91    5.4   258     7.6   965.2    0.00 
 144   21:40   0.00   49.8    95    7.5   256    11.2   965.2    0.00 
 144   21:50   0.00   49.4    96    8.6   256    11.8   965.2    0.00 
 144   22:00   0.00   49.2    97    7.4   259     9.5   965.2    0.00 
 144   22:10   0.00   49.2    98    6.1   259     8.8   965.1    0.00 
 144   22:20   0.00   49.7    98    1.8    15     4.0   965.0    0.00 
 144   22:30   0.00   50.4    97    4.8    37     6.6   964.9    0.00 
 144   22:40   0.00   50.4    95    5.1    36     6.0   964.9    0.00 
 144   22:50   0.00   50.4    95    5.8    40     7.9   964.8    0.00 
 144   23:00   0.00   50.3    96    7.7    37     8.9   964.7    0.00 
 144   23:10   0.00   50.2    96    6.7    37     8.0   964.7    0.00 
 144   23:20   0.00   50.1    96    4.5    43     6.6   964.7    0.00 
 144   23:30   0.00   50.0    96    3.1    37     4.4   964.7    0.00 

Return to Valley Peak, Santa Cruz Island Reserve graphs page.


Western Regional Climate Center,wrcc@dri.edu